Time;durP1;ratioP1;P1;durP2;ratioP2;P2;SDS_P1;SDS_P2;PMS_P1;PMS_P2;Temp;Humidity;BMP_temperature;BMP_pressure;BME280_temperature;BME280_humidity;BME280_pressure;Samples;Min_cycle;Max_cycle;Signal;HPM_P1;HPM_P2
2023/06/08 00:01:35;;;;;;;7.50;6.28;;;23.50;99.90;;;;;;6305279;22;20029;-62
2023/06/08 00:04:05;;;;;;;6.63;6.00;;;23.50;99.90;;;;;;6305403;22;20074;-61
2023/06/08 00:06:33;;;;;;;7.57;5.72;;;23.50;99.90;;;;;;6305320;22;20003;-61
2023/06/08 00:09:01;;;;;;;6.80;6.20;;;23.50;99.90;;;;;;6305137;22;20003;-60
2023/06/08 00:11:28;;;;;;;7.20;6.18;;;23.50;99.90;;;;;;6305127;22;20007;-61
2023/06/08 00:13:54;;;;;;;7.00;6.40;;;23.50;99.90;;;;;;6305987;22;20378;-61
2023/06/08 00:16:21;;;;;;;6.63;6.03;;;23.40;99.90;;;;;;6305096;22;20083;-61
2023/06/08 00:18:49;;;;;;;7.00;6.40;;;23.30;99.90;;;;;;6305499;22;20077;-62
2023/06/08 00:21:15;;;;;;;6.63;6.03;;;23.40;99.90;;;;;;6305318;22;20015;-61
2023/06/08 00:23:41;;;;;;;6.88;6.28;;;23.40;99.90;;;;;;6305107;22;20008;-60
2023/06/08 00:26:07;;;;;;;7.00;6.30;;;23.30;99.90;;;;;;6305053;22;20004;-61
2023/06/08 00:28:32;;;;;;;6.53;6.03;;;23.30;99.90;;;;;;6304957;22;20338;-61
2023/06/08 00:30:58;;;;;;;7.07;6.40;;;23.20;99.90;;;;;;6304860;22;20146;-61
2023/06/08 00:33:24;;;;;;;6.57;5.97;;;23.20;99.90;;;;;;6305594;22;20037;-62
2023/06/08 00:35:50;;;;;;;7.00;6.30;;;23.20;99.90;;;;;;6304693;22;19996;-61
2023/06/08 00:38:15;;;;;;;6.97;6.32;;;23.10;99.90;;;;;;6304709;22;20003;-61
2023/06/08 00:40:42;;;;;;;7.22;6.53;;;23.10;99.90;;;;;;6277505;22;20014;-60
2023/06/08 00:43:08;;;;;;;6.68;6.13;;;23.10;99.90;;;;;;6304441;22;20084;-61
2023/06/08 00:45:34;;;;;;;6.80;6.18;;;23.10;99.90;;;;;;6304424;22;20434;-61
2023/06/08 00:48:02;;;;;;;7.22;6.53;;;23.00;99.90;;;;;;6305014;22;20070;-61
2023/06/08 00:50:31;;;;;;;6.93;6.40;;;23.00;99.90;;;;;;6304880;22;19996;-60
2023/06/08 00:52:57;;;;;;;7.03;6.50;;;23.00;99.90;;;;;;6304831;22;20075;-61
2023/06/08 00:55:24;;;;;;;8.27;6.53;;;22.90;99.90;;;;;;6278177;22;20364;-61
2023/06/08 00:57:51;;;;;;;7.28;6.68;;;22.90;99.90;;;;;;6305102;22;20007;-61
2023/06/08 01:00:17;;;;;;;7.30;6.57;;;22.90;99.90;;;;;;6305093;22;19999;-61
2023/06/08 01:02:43;;;;;;;7.60;6.75;;;22.90;99.90;;;;;;6305549;22;20350;-61
2023/06/08 01:05:09;;;;;;;6.97;6.22;;;22.90;99.90;;;;;;6305033;22;20048;-61
2023/06/08 01:07:48;;;;;;;7.22;6.53;;;22.80;99.90;;;;;;6304428;22;20030;-61
2023/06/08 01:10:25;;;;;;;8.10;6.40;;;22.80;99.90;;;;;;6305175;22;20339;-61
2023/06/08 01:13:25;;;;;;;7.45;6.75;;;22.80;99.90;;;;;;6305526;22;20381;-61
2023/06/08 01:15:59;;;;;;;10.00;6.72;;;22.80;99.90;;;;;;6305553;22;20442;-61
2023/06/08 01:18:27;;;;;;;7.72;6.63;;;22.70;99.90;;;;;;6305301;22;20480;-61
2023/06/08 01:21:28;;;;;;;7.13;6.45;;;22.70;99.90;;;;;;6277162;22;20396;-61
2023/06/08 01:24:20;;;;;;;7.28;6.68;;;22.70;99.90;;;;;;6304802;22;20002;-61
2023/06/08 01:26:52;;;;;;;7.63;6.90;;;22.60;99.90;;;;;;6305226;22;20007;-60
2023/06/08 01:29:25;;;;;;;7.30;6.57;;;22.60;99.90;;;;;;6305348;22;20053;-61
2023/06/08 01:31:51;;;;;;;6.95;6.38;;;22.60;99.90;;;;;;6304718;22;20592;-60
2023/06/08 01:34:17;;;;;;;7.55;6.85;;;22.60;99.90;;;;;;6304739;22;20034;-61
2023/06/08 01:37:06;;;;;;;7.05;6.47;;;22.50;99.90;;;;;;6304912;22;20334;-61
2023/06/08 01:39:41;;;;;;;7.75;6.95;;;22.50;99.90;;;;;;6305252;22;20008;-60
2023/06/08 01:42:09;;;;;;;7.30;6.70;;;22.50;99.90;;;;;;6304923;22;20011;-61
2023/06/08 01:44:44;;;;;;;7.00;6.35;;;22.40;99.90;;;;;;6305063;22;19995;-61
2023/06/08 01:47:14;;;;;;;7.68;6.93;;;22.40;99.90;;;;;;6306037;22;20071;-61
2023/06/08 01:49:42;;;;;;;7.05;6.45;;;22.40;99.90;;;;;;6306519;22;20495;-61
2023/06/08 01:52:08;;;;;;;7.97;7.13;;;22.30;99.90;;;;;;6307147;22;20351;-61
2023/06/08 01:54:34;;;;;;;10.02;6.50;;;22.40;99.90;;;;;;6306729;22;20407;-61
2023/06/08 01:57:00;;;;;;;6.85;6.25;;;22.40;99.90;;;;;;6306625;22;20078;-61
2023/06/08 01:59:25;;;;;;;7.40;6.20;;;22.40;99.90;;;;;;6306622;22;20014;-62
2023/06/08 02:01:51;;;;;;;7.03;6.43;;;22.40;99.90;;;;;;6306645;22;20011;-61
2023/06/08 02:04:17;;;;;;;6.72;6.13;;;22.40;99.90;;;;;;6306506;22;19999;-61
2023/06/08 02:06:42;;;;;;;7.03;6.40;;;22.40;99.90;;;;;;6306780;22;20078;-61
2023/06/08 02:09:08;;;;;;;6.70;6.10;;;22.50;99.90;;;;;;6306781;22;20003;-61
2023/06/08 02:11:34;;;;;;;6.85;6.03;;;22.50;99.90;;;;;;6306592;22;20010;-61
2023/06/08 02:13:59;;;;;;;7.03;6.32;;;22.50;99.90;;;;;;6279526;22;20063;-60
2023/06/08 02:16:25;;;;;;;6.25;5.72;;;22.50;99.90;;;;;;6306410;22;20007;-62
2023/06/08 02:18:51;;;;;;;6.85;6.07;;;22.50;99.90;;;;;;6306394;22;19999;-61
2023/06/08 02:21:18;;;;;;;6.43;5.90;;;22.50;99.90;;;;;;6306468;22;20019;-61
2023/06/08 02:23:44;;;;;;;7.47;5.88;;;22.40;99.90;;;;;;6306340;22;20003;-61
2023/06/08 02:26:10;;;;;;;6.95;6.18;;;22.40;99.90;;;;;;6307627;22;20029;-61
2023/06/08 02:28:35;;;;;;;6.25;5.68;;;22.40;99.90;;;;;;6306535;22;20380;-61
2023/06/08 02:31:03;;;;;;;7.05;6.10;;;22.40;99.90;;;;;;6305544;22;20450;-61
2023/06/08 02:33:28;;;;;;;6.13;5.53;;;22.40;99.90;;;;;;6305545;22;20007;-61
2023/06/08 02:35:54;;;;;;;9.82;6.15;;;22.40;99.90;;;;;;6306190;22;20058;-61
2023/06/08 02:38:20;;;;;;;8.80;6.22;;;22.50;99.90;;;;;;6306714;22;20376;-62
2023/06/08 02:40:46;;;;;;;6.90;5.65;;;22.40;99.90;;;;;;6306371;22;20048;-61
2023/06/08 02:43:11;;;;;;;7.15;5.78;;;22.40;99.90;;;;;;6306223;22;20007;-61
2023/06/08 02:45:40;;;;;;;7.55;5.80;;;22.40;99.90;;;;;;6306082;22;20007;-61
2023/06/08 02:48:06;;;;;;;7.32;6.20;;;22.30;99.90;;;;;;6306155;22;20077;-61
2023/06/08 02:50:31;;;;;;;6.65;6.05;;;22.30;99.90;;;;;;6305789;22;20070;-61
2023/06/08 02:52:57;;;;;;;6.70;6.00;;;22.30;99.90;;;;;;6304858;22;20039;-60
2023/06/08 02:55:23;;;;;;;7.25;5.95;;;22.40;99.90;;;;;;6306131;22;19995;-61
2023/06/08 02:57:49;;;;;;;6.32;5.82;;;22.40;99.90;;;;;;6305224;22;20011;-60
2023/06/08 03:00:14;;;;;;;6.70;5.68;;;22.30;99.90;;;;;;6305953;22;20010;-61
2023/06/08 03:02:40;;;;;;;6.25;5.60;;;22.30;99.90;;;;;;6305209;22;20061;-61
2023/06/08 03:05:06;;;;;;;6.32;5.60;;;22.30;99.90;;;;;;6306237;22;20023;-61
2023/06/08 03:07:40;;;;;;;6.57;6.05;;;22.30;99.90;;;;;;6305845;22;20017;-61
2023/06/08 03:10:06;;;;;;;7.20;6.50;;;22.30;99.90;;;;;;6306444;22;19995;-61
2023/06/08 03:12:32;;;;;;;7.25;5.90;;;22.20;99.90;;;;;;6305783;22;20025;-61
2023/06/08 03:14:58;;;;;;;6.50;5.90;;;22.20;99.90;;;;;;6305519;22;20010;-61
2023/06/08 03:17:27;;;;;;;6.60;5.85;;;22.10;99.90;;;;;;6305419;22;20002;-61
2023/06/08 03:19:53;;;;;;;6.88;6.10;;;22.10;99.90;;;;;;6305380;22;20003;-61
2023/06/08 03:22:24;;;;;;;8.30;6.45;;;22.10;99.90;;;;;;6305752;22;20507;-61
2023/06/08 03:24:50;;;;;;;8.15;6.30;;;22.10;99.90;;;;;;6305163;22;19999;-60
2023/06/08 03:27:16;;;;;;;6.70;5.75;;;22.10;99.90;;;;;;6306052;22;20011;-61
2023/06/08 03:29:42;;;;;;;7.22;6.30;;;22.10;99.90;;;;;;6305922;22;20007;-61
2023/06/08 03:32:08;;;;;;;6.90;5.90;;;22.10;99.90;;;;;;6305109;22;20482;-61
2023/06/08 03:34:37;;;;;;;6.95;6.35;;;22.00;99.90;;;;;;6305643;22;20049;-61
2023/06/08 03:37:03;;;;;;;6.82;5.78;;;22.00;99.90;;;;;;6305858;22;20074;-61
2023/06/08 03:39:28;;;;;;;6.72;6.03;;;22.00;99.90;;;;;;6305606;22;20034;-62
2023/06/08 03:41:54;;;;;;;8.23;5.57;;;22.00;99.90;;;;;;6306255;22;20094;-61
2023/06/08 03:44:20;;;;;;;6.88;5.80;;;22.00;99.90;;;;;;6305452;22;19999;-61
2023/06/08 03:46:46;;;;;;;6.57;5.72;;;21.90;99.90;;;;;;6305159;22;20384;-62
2023/06/08 03:49:12;;;;;;;7.95;6.10;;;21.90;99.90;;;;;;6305269;22;20468;-61
2023/06/08 03:51:39;;;;;;;6.50;5.72;;;21.80;99.90;;;;;;6305723;22;20003;-60
2023/06/08 03:54:04;;;;;;;5.97;5.43;;;21.80;99.90;;;;;;6304247;22;20007;-61
2023/06/08 03:56:30;;;;;;;8.30;5.28;;;21.80;99.90;;;;;;6305178;22;20007;-61
2023/06/08 03:58:56;;;;;;;6.32;5.70;;;21.90;99.90;;;;;;6305388;22;20368;-61
2023/06/08 04:01:22;;;;;;;6.45;5.60;;;21.80;99.90;;;;;;6305245;22;20019;-60
2023/06/08 04:03:48;;;;;;;7.07;5.47;;;21.80;99.90;;;;;;6305081;22;20074;-61
2023/06/08 04:06:16;;;;;;;7.35;5.57;;;21.80;99.90;;;;;;6305690;22;20030;-61
2023/06/08 04:08:44;;;;;;;7.32;6.20;;;21.70;99.90;;;;;;6305618;22;20100;-60
2023/06/08 04:11:13;;;;;;;7.90;6.63;;;21.70;99.90;;;;;;6304961;22;20076;-60
2023/06/08 04:13:39;;;;;;;6.43;5.68;;;21.70;99.90;;;;;;6306009;22;20345;-61
2023/06/08 04:16:09;;;;;;;7.43;5.93;;;21.70;99.90;;;;;;6304866;22;20053;-60
2023/06/08 04:18:36;;;;;;;6.55;5.90;;;21.60;99.90;;;;;;6305183;22;20338;-59
2023/06/08 04:21:05;;;;;;;6.90;5.45;;;21.60;99.90;;;;;;6305068;22;20010;-61
2023/06/08 04:23:35;;;;;;;6.15;5.55;;;21.60;99.90;;;;;;6305331;22;20011;-61
2023/06/08 04:26:06;;;;;;;6.50;5.70;;;21.60;99.90;;;;;;6305156;22;19999;-61
2023/06/08 04:28:33;;;;;;;6.38;5.70;;;21.60;99.90;;;;;;6305448;22;20011;-61
2023/06/08 04:30:59;;;;;;;6.30;5.70;;;21.60;99.90;;;;;;6304920;22;20019;-61
2023/06/08 04:33:26;;;;;;;8.00;5.88;;;21.60;99.90;;;;;;6305176;22;20329;-61
2023/06/08 04:35:51;;;;;;;6.70;5.70;;;21.60;99.90;;;;;;6304758;22;20476;-61
2023/06/08 04:38:17;;;;;;;7.22;5.70;;;21.60;99.90;;;;;;6305368;22;19999;-61
2023/06/08 04:40:53;;;;;;;6.13;5.53;;;21.60;99.90;;;;;;6304920;22;20007;-61
2023/06/08 04:43:20;;;;;;;9.20;6.10;;;21.60;99.90;;;;;;6305313;22;20011;-61
2023/06/08 04:45:51;;;;;;;7.13;5.72;;;21.70;99.90;;;;;;6304934;22;20002;-61
2023/06/08 04:48:19;;;;;;;11.07;5.95;;;21.60;99.90;;;;;;6304603;22;20003;-60
2023/06/08 04:50:45;;;;;;;8.82;6.50;;;21.70;99.90;;;;;;6305004;22;20398;-60
2023/06/08 04:53:12;;;;;;;6.68;5.70;;;21.60;99.90;;;;;;6305322;22;20061;-61
2023/06/08 04:55:39;;;;;;;6.55;5.68;;;21.50;99.90;;;;;;6276772;22;20381;-61
2023/06/08 04:58:05;;;;;;;7.40;5.93;;;21.50;99.90;;;;;;6304127;22;20053;-61
2023/06/08 05:00:31;;;;;;;8.35;6.10;;;21.50;99.90;;;;;;6304984;22;20380;-60
2023/06/08 05:02:56;;;;;;;7.30;6.15;;;21.50;99.90;;;;;;6304967;22;20042;-60
2023/06/08 05:05:22;;;;;;;6.40;5.80;;;21.50;99.90;;;;;;6304843;22;19995;-61
2023/06/08 05:07:47;;;;;;;7.55;6.75;;;21.60;99.90;;;;;;6305174;22;20011;-61
2023/06/08 05:10:13;;;;;;;8.07;6.28;;;21.60;99.90;;;;;;6304816;22;19999;-62
2023/06/08 05:12:39;;;;;;;9.02;6.20;;;21.60;99.90;;;;;;6304395;22;20030;-61
2023/06/08 05:15:05;;;;;;;8.43;6.05;;;21.70;99.90;;;;;;6304977;22;20006;-61
2023/06/08 05:17:31;;;;;;;7.43;6.10;;;21.70;99.90;;;;;;6305141;22;20101;-61
2023/06/08 05:19:56;;;;;;;6.70;6.03;;;21.70;99.90;;;;;;6304815;22;20034;-61
2023/06/08 05:22:22;;;;;;;8.32;6.40;;;21.70;99.90;;;;;;6306751;22;20007;-60
2023/06/08 05:24:48;;;;;;;6.38;5.78;;;21.70;99.90;;;;;;6307086;22;20075;-61
2023/06/08 05:27:13;;;;;;;7.10;5.70;;;21.70;99.90;;;;;;6306391;22;20000;-61
2023/06/08 05:29:39;;;;;;;7.57;6.07;;;21.70;99.90;;;;;;6306559;22;20573;-62
2023/06/08 05:32:06;;;;;;;7.40;6.28;;;21.70;99.90;;;;;;6306617;22;20462;-61
2023/06/08 05:34:32;;;;;;;7.03;5.50;;;21.70;99.90;;;;;;6306774;22;20069;-62
2023/06/08 05:36:58;;;;;;;6.20;5.60;;;21.70;99.90;;;;;;6306625;22;20004;-61
2023/06/08 05:39:23;;;;;;;7.75;5.38;;;21.70;99.90;;;;;;6307259;22;20026;-60
2023/06/08 05:41:49;;;;;;;8.18;5.50;;;21.80;99.90;;;;;;6306340;22;20086;-61
2023/06/08 05:44:15;;;;;;;7.20;5.38;;;21.80;99.90;;;;;;6306450;22;20002;-61
2023/06/08 05:46:41;;;;;;;6.80;5.90;;;21.80;99.90;;;;;;6306910;22;20014;-61
2023/06/08 05:49:06;;;;;;;8.20;5.43;;;21.80;99.90;;;;;;6306366;22;19999;-62
2023/06/08 05:51:32;;;;;;;6.35;5.70;;;21.80;99.90;;;;;;6306480;22;20010;-60
2023/06/08 05:53:58;;;;;;;9.05;5.90;;;21.80;99.90;;;;;;6306590;22;20007;-61
2023/06/08 05:56:25;;;;;;;8.38;5.95;;;21.80;99.90;;;;;;6306247;22;20030;-61
2023/06/08 05:58:51;;;;;;;6.97;6.05;;;21.90;99.90;;;;;;6306984;22;20078;-60
2023/06/08 06:01:19;;;;;;;8.55;5.70;;;21.90;99.90;;;;;;6306701;22;20034;-60
2023/06/08 06:03:45;;;;;;;7.68;6.20;;;21.90;99.90;;;;;;6306245;22;20504;-60
2023/06/08 06:06:11;;;;;;;8.88;5.82;;;21.90;99.90;;;;;;6306498;22;19999;-60
2023/06/08 06:08:37;;;;;;;7.68;5.88;;;21.90;99.90;;;;;;6306852;22;20011;-60
2023/06/08 06:11:02;;;;;;;6.50;5.72;;;21.90;99.90;;;;;;6305739;22;20082;-61
2023/06/08 06:13:28;;;;;;;8.85;5.40;;;21.90;99.90;;;;;;6306336;22;19999;-61
2023/06/08 06:15:54;;;;;;;6.10;5.50;;;22.10;99.90;;;;;;6307057;22;20011;-59
2023/06/08 06:18:19;;;;;;;6.63;5.90;;;22.10;99.90;;;;;;6306373;22;20380;-61
2023/06/08 06:20:45;;;;;;;10.30;5.78;;;22.10;99.90;;;;;;6306181;22;20374;-61
2023/06/08 06:23:11;;;;;;;8.80;5.45;;;22.10;99.90;;;;;;6306603;22;20008;-60
2023/06/08 06:25:36;;;;;;;6.40;5.32;;;22.20;99.90;;;;;;6306048;22;20007;-61
2023/06/08 06:28:03;;;;;;;6.97;5.40;;;22.40;99.90;;;;;;6306501;22;19999;-60
2023/06/08 06:30:28;;;;;;;9.00;5.45;;;22.40;99.90;;;;;;6306779;22;20098;-60
2023/06/08 06:32:54;;;;;;;5.85;5.28;;;22.40;99.90;;;;;;6305793;22;20031;-61
2023/06/08 06:35:20;;;;;;;8.10;5.70;;;22.40;99.90;;;;;;6306180;22;19999;-61
2023/06/08 06:37:46;;;;;;;7.40;5.35;;;22.50;99.90;;;;;;6306317;22;20056;-61
2023/06/08 06:40:12;;;;;;;6.13;5.53;;;22.40;99.90;;;;;;6278261;22;20007;-61
2023/06/08 06:42:39;;;;;;;7.70;5.43;;;22.40;99.90;;;;;;6306159;22;20012;-61
2023/06/08 06:45:05;;;;;;;6.53;5.25;;;22.40;99.90;;;;;;6305987;22;20401;-61
2023/06/08 06:47:31;;;;;;;5.45;4.95;;;22.40;99.90;;;;;;6306030;22;20070;-59
2023/06/08 06:49:56;;;;;;;5.65;4.95;;;22.50;99.90;;;;;;6306042;22;20451;-61
2023/06/08 06:52:22;;;;;;;6.05;5.45;;;22.40;99.90;;;;;;6306182;22;20506;-61
2023/06/08 06:54:47;;;;;;;6.78;5.43;;;22.40;99.90;;;;;;6305700;22;19999;-61
2023/06/08 06:57:13;;;;;;;5.85;5.35;;;22.40;99.90;;;;;;6306039;22;20015;-62
2023/06/08 06:59:40;;;;;;;7.30;5.47;;;22.40;99.90;;;;;;6306520;22;20003;-61
2023/06/08 07:02:06;;;;;;;8.68;5.50;;;22.40;99.90;;;;;;6306081;22;20090;-61
2023/06/08 07:04:32;;;;;;;7.20;5.40;;;22.50;99.90;;;;;;6305586;22;20007;-60
2023/06/08 07:06:58;;;;;;;5.82;5.15;;;22.50;99.90;;;;;;6277986;22;20007;-60
2023/06/08 07:09:25;;;;;;;5.53;5.03;;;22.60;99.90;;;;;;6304498;22;20420;-60
2023/06/08 07:11:52;;;;;;;7.10;4.88;;;22.70;99.90;;;;;;6304557;22;20004;-61
2023/06/08 07:14:17;;;;;;;7.50;5.10;;;22.70;99.90;;;;;;6305331;22;20006;-60
2023/06/08 07:16:43;;;;;;;6.80;4.95;;;22.80;99.90;;;;;;6305415;22;20344;-61
2023/06/08 07:19:09;;;;;;;5.70;5.20;;;22.80;99.90;;;;;;6306123;22;20003;-61
2023/06/08 07:21:38;;;;;;;6.20;5.20;;;22.80;99.90;;;;;;6305588;22;20503;-60
2023/06/08 07:24:05;;;;;;;6.72;4.85;;;22.90;99.90;;;;;;6305426;22;20377;-61
2023/06/08 07:26:31;;;;;;;6.50;5.15;;;23.00;99.90;;;;;;6305881;22;20088;-61
2023/06/08 07:28:58;;;;;;;6.28;5.20;;;23.00;99.90;;;;;;6305634;22;20074;-61
2023/06/08 07:31:24;;;;;;;6.63;4.72;;;23.10;99.90;;;;;;6306022;22;20082;-61
2023/06/08 07:33:50;;;;;;;6.53;4.90;;;23.20;99.90;;;;;;6305222;22;20070;-61
2023/06/08 07:36:16;;;;;;;7.22;4.60;;;23.20;99.90;;;;;;6305526;22;20034;-61
2023/06/08 07:38:42;;;;;;;7.25;5.07;;;23.30;99.90;;;;;;6305275;22;20006;-61
2023/06/08 07:41:08;;;;;;;7.40;5.10;;;23.30;99.90;;;;;;6305366;22;20018;-61
2023/06/08 07:43:33;;;;;;;7.78;5.10;;;23.40;99.90;;;;;;6305153;22;20003;-61
2023/06/08 07:45:59;;;;;;;6.63;4.32;;;23.50;99.90;;;;;;6303963;22;20027;-60
2023/06/08 07:48:25;;;;;;;4.78;4.22;;;23.60;99.90;;;;;;6304592;22;20007;-61
2023/06/08 07:50:50;;;;;;;5.97;4.50;;;23.70;99.90;;;;;;6305346;22;19999;-61
2023/06/08 07:53:17;;;;;;;4.40;3.90;;;23.80;99.90;;;;;;6304865;22;20007;-60
2023/06/08 07:55:43;;;;;;;9.23;4.50;;;23.90;99.90;;;;;;6305073;22;19999;-61
2023/06/08 07:58:09;;;;;;;6.38;5.10;;;24.00;99.90;;;;;;6305357;22;20011;-61
2023/06/08 08:00:35;;;;;;;6.13;4.57;;;24.10;99.90;;;;;;6305159;22;20449;-61
2023/06/08 08:03:03;;;;;;;5.43;4.65;;;24.10;99.90;;;;;;6304819;22;20011;-61
2023/06/08 08:05:30;;;;;;;6.00;4.55;;;24.10;99.90;;;;;;6305330;22;20511;-61
2023/06/08 08:07:55;;;;;;;5.30;4.68;;;24.10;99.90;;;;;;6304661;22;20003;-61
2023/06/08 08:10:21;;;;;;;6.55;5.05;;;24.10;99.90;;;;;;6304901;22;20063;-61
2023/06/08 08:12:47;;;;;;;6.35;5.00;;;24.20;99.90;;;;;;6305697;22;20022;-62
2023/06/08 08:15:12;;;;;;;5.32;4.32;;;24.30;99.90;;;;;;6305043;22;20072;-61
2023/06/08 08:17:38;;;;;;;5.80;4.55;;;24.30;99.90;;;;;;6305446;22;19999;-61
2023/06/08 08:20:04;;;;;;;6.43;4.60;;;24.30;99.90;;;;;;6305352;22;20337;-61
2023/06/08 08:22:31;;;;;;;6.32;4.78;;;24.40;99.90;;;;;;6304226;22;20011;-61
2023/06/08 08:24:57;;;;;;;5.60;4.50;;;24.40;99.90;;;;;;6305186;22;20007;-61
2023/06/08 08:27:23;;;;;;;6.90;4.95;;;24.50;99.90;;;;;;6305547;22;20007;-61
2023/06/08 08:29:48;;;;;;;6.90;5.00;;;24.60;99.90;;;;;;6277921;22;20061;-61
2023/06/08 08:32:14;;;;;;;6.13;4.60;;;24.70;99.90;;;;;;6304597;22;20025;-62
2023/06/08 08:34:40;;;;;;;7.18;4.70;;;24.70;99.90;;;;;;6304797;22;19999;-62
2023/06/08 08:37:06;;;;;;;5.97;4.70;;;24.80;99.90;;;;;;6304779;22;20031;-60
2023/06/08 08:39:32;;;;;;;5.38;4.70;;;24.80;99.90;;;;;;6304951;22;20441;-62
2023/06/08 08:42:04;;;;;;;7.05;4.72;;;24.90;99.90;;;;;;6305559;22;20015;-63
2023/06/08 08:44:33;;;;;;;6.20;4.75;;;25.00;99.90;;;;;;6305270;22;20004;-61
2023/06/08 08:47:02;;;;;;;6.00;4.90;;;25.00;99.90;;;;;;6303882;22;20004;-63
2023/06/08 08:49:32;;;;;;;8.02;5.00;;;25.10;99.90;;;;;;6304824;22;20338;-63
2023/06/08 08:52:01;;;;;;;7.97;4.85;;;25.10;99.90;;;;;;6304619;22;20007;-62
2023/06/08 08:54:34;;;;;;;6.75;4.63;;;25.20;99.90;;;;;;6304738;22;20088;-62
2023/06/08 08:57:00;;;;;;;5.35;4.30;;;25.30;99.90;;;;;;6304591;22;20430;-61
2023/06/08 08:59:28;;;;;;;5.00;4.60;;;25.40;99.90;;;;;;6305034;22;20050;-62
2023/06/08 09:01:57;;;;;;;6.15;5.30;;;25.40;99.90;;;;;;6305044;22;20090;-62
2023/06/08 09:04:26;;;;;;;7.88;5.03;;;25.40;99.90;;;;;;6303967;22;20004;-62
2023/06/08 09:06:51;;;;;;;5.85;5.32;;;25.50;99.90;;;;;;6304452;22;20062;-62
2023/06/08 09:09:17;;;;;;;8.40;5.57;;;25.40;99.90;;;;;;6305442;22;19999;-62
2023/06/08 09:11:58;;;;;;;8.38;6.63;;;25.50;99.90;;;;;;6305002;22;20003;-62
2023/06/08 09:14:24;;;;;;;7.32;5.32;;;25.50;99.90;;;;;;6305014;22;19995;-62
2023/06/08 09:16:50;;;;;;;6.60;5.60;;;25.50;99.90;;;;;;6304668;22;20011;-62
2023/06/08 09:19:16;;;;;;;6.10;5.50;;;25.60;99.90;;;;;;6304548;22;20019;-62
2023/06/08 09:21:43;;;;;;;5.88;5.20;;;25.70;99.90;;;;;;6304439;22;20038;-62
2023/06/08 09:24:22;;;;;;;7.05;5.35;;;25.70;99.90;;;;;;6305075;22;20007;-63
2023/06/08 09:26:59;;;;;;;6.05;5.45;;;25.90;99.90;;;;;;6305397;22;20090;-61
2023/06/08 09:29:38;;;;;;;9.57;5.65;;;25.90;99.90;;;;;;6305476;22;20067;-62
2023/06/08 09:32:04;;;;;;;8.23;6.03;;;26.00;99.90;;;;;;6304723;22;20488;-63
2023/06/08 09:34:33;;;;;;;6.47;5.40;;;26.00;99.90;;;;;;6304486;22;20076;-61
2023/06/08 09:37:10;;;;;;;6.70;4.80;;;26.10;99.90;;;;;;6304714;22;20003;-62
2023/06/08 09:39:43;;;;;;;6.15;4.97;;;26.10;99.90;;;;;;6304601;22;20082;-63
2023/06/08 09:42:09;;;;;;;;;;;26.30;99.90;;;;;;6305167;22;20389;-62
2023/06/08 09:44:36;;;;;;;8.98;5.28;;;26.30;99.90;;;;;;6305524;22;20276;-63
2023/06/08 09:47:25;;;;;;;7.13;4.70;;;26.40;99.90;;;;;;6304428;22;20018;-63
2023/06/08 09:49:55;;;;;;;5.93;4.93;;;26.50;99.90;;;;;;6304913;22;19995;-63
2023/06/08 09:52:23;;;;;;;5.00;4.50;;;26.60;99.90;;;;;;6303820;22;19999;-63
2023/06/08 09:54:52;;;;;;;7.00;4.60;;;26.60;99.90;;;;;;6304253;22;20003;-63
2023/06/08 09:57:21;;;;;;;5.38;4.60;;;26.70;99.90;;;;;;6304783;22;19999;-63
2023/06/08 09:59:47;;;;;;;6.95;4.57;;;26.80;99.90;;;;;;6304814;22;20011;-63
2023/06/08 10:02:38;;;;;;;7.45;4.90;;;26.80;99.90;;;;;;6304221;22;20019;-63
2023/06/08 10:05:17;;;;;;;5.53;4.97;;;27.00;99.90;;;;;;6303638;22;19999;-63
2023/06/08 10:07:47;;;;;;;7.85;4.65;;;27.00;99.90;;;;;;6305563;22;20054;-61
2023/06/08 10:10:22;;;;;;;5.82;4.45;;;27.10;99.90;;;;;;6306250;22;20008;-63
2023/06/08 10:12:48;;;;;;;5.30;4.57;;;27.00;99.90;;;;;;6306336;22;20003;-63
2023/06/08 10:15:15;;;;;;;7.63;4.72;;;27.00;99.90;;;;;;6305121;22;20005;-63
2023/06/08 10:17:42;;;;;;;5.20;4.70;;;27.00;99.90;;;;;;6306074;22;20007;-63
2023/06/08 10:20:12;;;;;;;6.55;4.75;;;27.10;99.90;;;;;;6306566;22;20476;-63
2023/06/08 10:22:39;;;;;;;5.68;4.93;;;27.00;99.90;;;;;;6306323;22;20349;-63
2023/06/08 10:25:07;;;;;;;7.07;4.97;;;27.10;99.90;;;;;;6306498;22;20010;-61
2023/06/08 10:27:38;;;;;;;6.47;4.07;;;27.00;99.90;;;;;;6306000;22;20101;-63
2023/06/08 10:30:05;;;;;;;5.90;4.40;;;27.00;99.90;;;;;;6306002;22;20007;-62
2023/06/08 10:32:42;;;;;;;7.10;4.57;;;27.10;99.90;;;;;;6278550;22;20074;-63
2023/06/08 10:35:09;;;;;;;6.03;4.25;;;27.10;99.90;;;;;;6306094;22;20049;-62
2023/06/08 10:37:37;;;;;;;4.90;4.40;;;27.10;99.90;;;;;;6306405;22;20006;-63
2023/06/08 10:40:10;;;;;;;7.93;4.72;;;27.00;99.90;;;;;;6278731;22;20068;-62
2023/06/08 10:42:37;;;;;;;6.65;4.63;;;27.20;99.90;;;;;;6305961;22;20007;-62
2023/06/08 10:45:04;;;;;;;5.65;4.50;;;27.20;99.90;;;;;;6306080;22;20000;-62
2023/06/08 10:47:33;;;;;;;5.65;4.90;;;27.30;99.90;;;;;;6305772;22;20010;-62
2023/06/08 10:50:03;;;;;;;4.93;4.50;;;27.40;99.90;;;;;;6306376;22;19999;-62
2023/06/08 10:52:44;;;;;;;6.35;4.55;;;27.50;99.90;;;;;;6305722;22;20007;-63
2023/06/08 10:55:14;;;;;;;5.97;5.22;;;27.50;99.90;;;;;;6304973;22;20006;-63
2023/06/08 10:57:44;;;;;;;6.45;5.80;;;27.60;99.90;;;;;;6305748;22;20003;-62
2023/06/08 11:00:23;;;;;;;6.20;5.60;;;27.70;99.90;;;;;;6305509;22;20006;-62
2023/06/08 11:02:49;;;;;;;5.55;4.85;;;27.80;99.90;;;;;;6305573;22;20017;-62
2023/06/08 11:05:16;;;;;;;5.97;5.30;;;27.90;99.90;;;;;;6305840;22;20049;-62
2023/06/08 11:07:42;;;;;;;5.78;5.20;;;28.00;99.90;;;;;;6305674;22;20007;-62
2023/06/08 11:10:09;;;;;;;5.38;4.68;;;28.00;99.90;;;;;;6305878;22;20056;-63
2023/06/08 11:12:34;;;;;;;5.82;4.68;;;28.00;99.90;;;;;;6306438;22;20072;-62
2023/06/08 11:15:00;;;;;;;5.00;4.60;;;28.00;99.90;;;;;;6305749;22;20430;-62
2023/06/08 11:17:27;;;;;;;5.38;4.38;;;28.00;99.90;;;;;;6306309;22;20027;-62
2023/06/08 11:19:52;;;;;;;5.63;5.00;;;28.00;99.90;;;;;;6305786;22;19999;-62
2023/06/08 11:22:21;;;;;;;7.10;5.40;;;28.00;99.90;;;;;;6305629;22;20011;-62
2023/06/08 11:24:47;;;;;;;6.88;4.28;;;28.00;99.90;;;;;;6305844;22;20056;-63
2023/06/08 11:27:18;;;;;;;5.20;4.68;;;28.00;99.90;;;;;;6305672;22;20007;-62
2023/06/08 11:29:47;;;;;;;5.00;4.50;;;28.00;99.90;;;;;;6305343;22;19999;-62
2023/06/08 11:32:15;;;;;;;5.00;4.50;;;28.00;99.90;;;;;;6305403;22;20022;-62
2023/06/08 11:34:49;;;;;;;4.60;4.20;;;28.00;99.90;;;;;;6306151;22;20334;-62
2023/06/08 11:37:16;;;;;;;5.07;4.57;;;28.00;99.90;;;;;;6305569;22;20003;-63
2023/06/08 11:39:47;;;;;;;6.38;4.57;;;28.10;99.90;;;;;;6305577;22;20003;-62
2023/06/08 11:42:13;;;;;;;4.53;3.97;;;28.20;99.90;;;;;;6305617;22;20341;-62
2023/06/08 11:44:39;;;;;;;4.60;4.10;;;28.40;99.90;;;;;;6305347;22;20374;-62
2023/06/08 11:47:08;;;;;;;6.78;4.05;;;28.50;99.90;;;;;;6305684;22;20079;-62
2023/06/08 11:49:53;;;;;;;5.22;4.30;;;28.60;99.90;;;;;;6305338;22;19999;-62
2023/06/08 11:52:22;;;;;;;4.75;4.30;;;28.70;99.90;;;;;;6305146;22;20003;-62
2023/06/08 11:54:54;;;;;;;4.72;4.03;;;28.70;99.90;;;;;;6305822;22;19999;-62
2023/06/08 11:57:21;;;;;;;4.78;4.13;;;28.60;99.90;;;;;;6305453;22;20003;-62
2023/06/08 11:59:47;;;;;;;6.70;4.28;;;28.60;99.90;;;;;;6305459;22;19995;-63
2023/06/08 12:02:13;;;;;;;5.13;4.35;;;28.70;99.90;;;;;;6305194;22;20042;-62
2023/06/08 12:04:40;;;;;;;5.32;4.40;;;28.70;99.90;;;;;;6305306;22;20078;-62
2023/06/08 12:07:12;;;;;;;4.55;4.10;;;28.60;99.90;;;;;;6305635;22;20007;-62
2023/06/08 12:09:38;;;;;;;4.40;4.00;;;28.60;99.90;;;;;;6305749;22;20006;-62
2023/06/08 12:12:09;;;;;;;4.55;4.15;;;28.50;99.90;;;;;;6305303;22;20003;-62
2023/06/08 12:14:48;;;;;;;4.70;4.10;;;28.50;99.90;;;;;;6304737;22;19995;-62
2023/06/08 12:17:15;;;;;;;5.13;4.10;;;28.60;99.90;;;;;;6305034;22;20003;-62
2023/06/08 12:19:45;;;;;;;5.97;4.35;;;28.60;99.90;;;;;;6305544;22;20426;-62
2023/06/08 12:22:12;;;;;;;5.53;4.30;;;28.70;99.90;;;;;;6304891;22;20454;-63
2023/06/08 12:24:38;;;;;;;6.45;4.50;;;28.80;99.90;;;;;;6305011;22;20006;-62
2023/06/08 12:27:06;;;;;;;5.35;4.32;;;29.10;99.90;;;;;;6277331;22;20007;-62
2023/06/08 12:29:32;;;;;;;5.07;4.20;;;29.30;99.90;;;;;;6305783;22;20405;-63
2023/06/08 12:31:59;;;;;;;4.63;4.05;;;29.50;99.90;;;;;;6304486;22;20442;-62
2023/06/08 12:34:28;;;;;;;4.45;4.03;;;29.40;99.90;;;;;;6305124;22;20003;-62
2023/06/08 12:36:54;;;;;;;4.32;3.92;;;29.40;99.90;;;;;;6305113;22;20003;-63
2023/06/08 12:39:20;;;;;;;3.50;3.20;;;29.20;99.90;;;;;;6305792;22;20469;-62
2023/06/08 12:41:46;;;;;;;3.83;3.00;;;29.10;99.90;;;;;;6304462;22;20041;-62
2023/06/08 12:44:11;;;;;;;3.95;3.40;;;29.10;99.90;;;;;;6305082;22;20007;-63
2023/06/08 12:46:38;;;;;;;4.05;2.78;;;29.10;99.90;;;;;;6305747;22;20430;-62
2023/06/08 12:49:04;;;;;;;3.75;2.92;;;29.10;99.90;;;;;;6305121;22;20426;-62
2023/06/08 12:51:30;;;;;;;3.05;2.75;;;29.00;99.90;;;;;;6304924;22;20037;-63